Wales, AK

5:56 AM AKDT on September 01, 2014 (GMT -0800)
Tin City LRRS | Change Station
CLOSE
Current Station
Airport
Location: Tin City,
Elevation: 272 ft
Nearby Weather Stations

Elev 272 ft 65.56 °N, 167.92 °W | Updated 21 minutes ago

Light Rain
Light Rain
46 °F
Feels Like 38 °F
N
23
Wind Variable Wind from NNE

Today
High -- | Low -- °F
--% Chance of Precip.
Yesterday
High -- | Low -- °F
Precip. -- in
7:49 AM 10:31 PM
Waxing Crescent, 41% visible
Pressure 29.43 in
Visibility 3.0 miles
Clouds Few 700 ft
Overcast 2500 ft
Windchill 38 °F
Dew Point 46 °F
Humidity 100%
Rainfall 0.28 in
Snow Depth Not available.
UV 0 out of 12
Pollen Not available.
Air Quality Not available.
Flu Activity Not available.
SPECI PATC 011335Z AUTO 02020KT 3SM -RA FEW007 OVC025 08/08 A2942 RMK AO2 SLP964

More Conditions Fewer Conditions

Pressure 29.43 in
Visibility 3.0 miles
Clouds Few 700 ft
Overcast 2500 ft
Windchill 38 °F
Dew Point 46 °F
Humidity 100%
Rainfall 0.28 in
Snow Depth Not available.
UV 0 out of 12
Pollen Not available.
Air Quality Not available.
Flu Activity Not available.
SPECI PATC 011335Z AUTO 02020KT 3SM -RA FEW007 OVC025 08/08 A2942 RMK AO2 SLP964

More Conditions Fewer Conditions

10-Day Weather Forecast

Almanac

Astronomy

Sep. 01, 2014 Rise Set
Actual Time 7:49 AM AKDT 10:31 PM AKDT
Civil Twilight 6:52 AM AKDT 11:27 PM AKDT
Nautical Twilight 5:29 AM AKDT 12:48 AM AKDT
Astronomical Twilight 3:44 AM AKDT 2:38 AM AKDT
Moon 5:38 PM AKDT 11:52 PM AKDT
Length of Visible Light 16h 35m
Length of Day
14h 41m
Tomorrow will be 6m 58s shorter.
Waxing Crescent, 41% of the Moon is Illuminated
Today
Waxing Crescent
Sep 2
First Quarter
Sep 8
Full
Sep 15
Last Quarter
Sep 24
New

Today's Extremes

State Highs State Lows

Community

WunderPhotos

Upload Photos

1,749,222 photos uploaded!

Nearby

Snow Depth

Station Depth Elevation
Pargon Creek 0 in 300 ft
Rocky Point 4 in 500 ft
Coldfoot 0 in 1040 ft
Atigun Pass 2 in 4800 ft
Imnaviat Creek 0 in 3050 ft

Earthquake Activity

City Distance Mag. Time & Date
No recent earthquake activity has been reported nearby.
Minimum magnitude displayed is 2.5.

Coastal Water Temperatures

Place Temperature
No Stations Reporting

Nearby Weather Stations